Time;durP1;ratioP1;P1;durP2;ratioP2;P2;SDS_P1;SDS_P2;PMS_P1;PMS_P2;Temp;Humidity;BMP_temperature;BMP_pressure;BME280_temperature;BME280_humidity;BME280_pressure;Samples;Min_cycle;Max_cycle;Signal;HPM_P1;HPM_P2
2022/06/18 00:01:45;;;;;;;10.10;9.80;;;17.90;99.90;;;;;;5058278;28;20234;-78
2022/06/18 00:04:25;;;;;;;10.07;9.77;;;17.90;99.90;;;;;;5060102;28;20242;-79
2022/06/18 00:07:14;;;;;;;10.35;10.05;;;17.90;99.90;;;;;;5060585;28;20222;-80
2022/06/18 00:10:01;;;;;;;10.32;10.02;;;17.90;99.90;;;;;;5058501;28;20259;-81
2022/06/18 00:15:34;;;;;;;10.10;9.80;;;17.80;99.90;;;;;;5058322;28;20219;-80
2022/06/18 00:21:14;;;;;;;10.20;9.90;;;17.80;99.90;;;;;;5055323;28;20225;-79
2022/06/18 00:26:31;;;;;;;9.93;9.63;;;17.80;99.90;;;;;;5056192;28;20350;-80
2022/06/18 00:29:04;;;;;;;10.25;9.95;;;17.80;99.90;;;;;;5057527;28;20254;-80
2022/06/18 00:31:54;;;;;;;9.80;9.50;;;17.80;99.90;;;;;;5059180;28;20223;-80
2022/06/18 00:34:22;;;;;;;10.15;9.85;;;17.70;99.90;;;;;;5057874;28;20273;-79
2022/06/18 00:37:09;;;;;;;10.10;9.80;;;17.70;99.90;;;;;;5058397;28;20230;-80
2022/06/18 00:40:05;;;;;;;10.20;9.90;;;17.60;99.90;;;;;;5057871;28;20620;-79
2022/06/18 00:43:17;;;;;;;10.10;9.80;;;17.60;99.90;;;;;;5058327;28;20239;-80
2022/06/18 00:45:56;;;;;;;10.32;10.02;;;17.50;99.90;;;;;;5058004;28;20261;-77
2022/06/18 00:51:55;;;;;;;10.20;9.90;;;17.40;99.90;;;;;;5044414;28;20242;-78
2022/06/18 00:54:53;;;;;;;10.10;9.80;;;17.40;99.90;;;;;;5061660;28;20215;-78
2022/06/18 00:57:51;;;;;;;10.10;9.80;;;17.40;99.90;;;;;;5058234;28;20258;-78
2022/06/18 01:00:45;;;;;;;9.98;9.68;;;17.30;99.90;;;;;;5058049;28;20293;-79
2022/06/18 01:03:39;;;;;;;10.00;9.70;;;17.30;99.90;;;;;;5059060;28;20231;-78
2022/06/18 01:06:36;;;;;;;9.95;9.65;;;17.20;99.90;;;;;;5058558;28;20234;-79
2022/06/18 01:09:14;;;;;;;10.10;9.80;;;17.20;99.90;;;;;;5058288;28;20238;-78
2022/06/18 01:12:07;;;;;;;10.20;9.90;;;17.20;99.90;;;;;;5051847;28;20254;-78
2022/06/18 01:14:47;;;;;;;9.95;9.65;;;17.10;99.90;;;;;;5048608;28;20231;-79
2022/06/18 01:17:28;;;;;;;10.32;10.02;;;16.90;99.90;;;;;;5057741;28;20222;-78
2022/06/18 01:20:00;;;;;;;10.30;10.00;;;16.80;99.90;;;;;;5056423;28;20316;-80
2022/06/18 01:22:40;;;;;;;9.90;9.60;;;16.70;99.90;;;;;;5048885;28;20226;-79
2022/06/18 01:25:19;;;;;;;9.90;9.60;;;16.70;99.90;;;;;;5058147;28;20233;-79
2022/06/18 01:28:09;;;;;;;10.00;9.70;;;16.60;99.90;;;;;;5057921;28;20612;-80
2022/06/18 01:30:47;;;;;;;9.90;9.60;;;16.60;99.90;;;;;;5057536;28;20253;-79
2022/06/18 01:33:16;;;;;;;9.95;9.65;;;16.60;99.90;;;;;;5057643;28;20237;-77
2022/06/18 01:35:55;;;;;;;9.80;9.50;;;16.50;99.90;;;;;;5058109;28;20219;-78
2022/06/18 01:38:25;;;;;;;9.90;9.60;;;16.50;99.90;;;;;;5054226;28;20278;-78
2022/06/18 01:41:49;;;;;;;10.07;9.77;;;16.50;99.90;;;;;;5053718;28;20262;-78
2022/06/18 01:44:04;;;;;;;10.00;9.70;;;16.40;99.90;;;;;;5056787;28;20231;-78
2022/06/18 01:46:41;;;;;;;9.70;9.40;;;16.40;99.90;;;;;;5057999;28;20284;-78
2022/06/18 01:49:19;;;;;;;9.90;9.60;;;16.40;99.90;;;;;;5060551;28;20238;-78
2022/06/18 01:51:55;;;;;;;10.10;9.80;;;16.30;99.90;;;;;;5060233;28;20680;-79
2022/06/18 01:54:37;;;;;;;10.00;9.70;;;16.30;99.90;;;;;;5043011;28;20229;-80
2022/06/18 01:57:51;;;;;;;10.00;9.70;;;16.20;99.90;;;;;;5039521;28;20803;-79
2022/06/18 02:00:32;;;;;;;10.00;9.70;;;16.20;99.90;;;;;;5039935;28;20235;-79
2022/06/18 02:08:25;;;;;;;9.75;9.45;;;16.10;99.90;;;;;;5039985;28;20215;-79
2022/06/18 02:11:03;;;;;;;9.77;9.48;;;16.10;99.90;;;;;;5040414;28;20294;-79
2022/06/18 02:13:42;;;;;;;10.00;9.70;;;16.10;99.90;;;;;;5040397;28;20323;-79
2022/06/18 02:16:25;;;;;;;9.70;9.40;;;16.10;99.90;;;;;;5039622;28;20246;-79
2022/06/18 02:18:59;;;;;;;9.90;9.60;;;16.00;99.90;;;;;;5039926;28;20255;-80
2022/06/18 02:21:33;;;;;;;10.10;9.80;;;16.00;99.90;;;;;;5040519;28;20242;-79
2022/06/18 02:24:01;;;;;;;9.90;9.60;;;16.00;99.90;;;;;;5040196;28;20231;-79
2022/06/18 02:29:33;;;;;;;9.80;9.50;;;16.00;99.90;;;;;;5033613;28;20244;-80
2022/06/18 02:32:17;;;;;;;10.05;9.75;;;16.10;99.90;;;;;;5040931;28;20235;-80
2022/06/18 02:35:04;;;;;;;10.02;9.73;;;16.00;99.90;;;;;;5039457;28;20235;-80
2022/06/18 02:37:51;;;;;;;9.82;9.52;;;16.10;99.90;;;;;;5039990;28;20254;-80
2022/06/18 02:40:32;;;;;;;10.10;9.80;;;16.10;99.90;;;;;;5040022;28;20235;-81
2022/06/18 02:43:27;;;;;;;10.20;9.90;;;16.00;99.90;;;;;;5055829;28;20227;-79
2022/06/18 02:46:00;;;;;;;10.18;9.88;;;16.00;99.90;;;;;;5055739;28;20231;-80
2022/06/18 02:48:34;;;;;;;10.20;9.90;;;15.90;99.90;;;;;;5041379;28;20231;-78
2022/06/18 02:51:13;;;;;;;10.10;9.80;;;15.90;99.90;;;;;;5040536;28;20228;-78
2022/06/18 02:53:53;;;;;;;10.30;10.00;;;15.90;99.90;;;;;;5040635;28;20251;-79
2022/06/18 02:56:20;;;;;;;10.18;9.88;;;15.90;99.90;;;;;;5041815;28;20267;-80
2022/06/18 02:58:52;;;;;;;10.20;9.90;;;15.90;99.90;;;;;;5040414;28;20361;-80
2022/06/18 03:01:27;;;;;;;10.20;9.90;;;15.90;99.90;;;;;;5040197;28;20232;-81
2022/06/18 03:04:09;;;;;;;10.27;9.98;;;15.90;99.90;;;;;;5040476;28;20231;-79
2022/06/18 03:06:39;;;;;;;10.10;9.80;;;15.80;99.90;;;;;;5040704;28;20231;-79
2022/06/18 03:09:09;;;;;;;10.10;9.80;;;15.80;99.90;;;;;;5040680;28;20263;-79
2022/06/18 03:14:23;;;;;;;10.23;9.93;;;15.80;99.90;;;;;;5039941;28;20267;-79
2022/06/18 03:16:59;;;;;;;10.23;9.93;;;15.80;99.90;;;;;;5039864;28;20254;-79
2022/06/18 03:22:54;;;;;;;9.93;9.63;;;15.80;99.90;;;;;;5038164;28;20274;-79
2022/06/18 03:25:23;;;;;;;9.98;9.68;;;15.80;99.90;;;;;;5043012;28;20327;-79
2022/06/18 03:27:53;;;;;;;10.13;9.82;;;15.80;99.90;;;;;;5040324;28;20239;-79
2022/06/18 03:30:24;;;;;;;10.00;9.70;;;15.80;99.90;;;;;;5040012;28;20231;-79
2022/06/18 03:38:41;;;;;;;10.00;9.70;;;15.80;99.90;;;;;;5036006;28;20263;-78
2022/06/18 03:41:15;;;;;;;9.90;9.60;;;15.80;99.90;;;;;;5038747;28;20238;-79
2022/06/18 03:46:31;;;;;;;10.05;9.75;;;15.80;99.90;;;;;;5037966;28;20239;-79
2022/06/18 03:49:32;;;;;;;10.05;9.75;;;15.90;99.90;;;;;;5038526;28;20230;-78
2022/06/18 03:54:59;;;;;;;10.05;9.75;;;15.90;99.90;;;;;;5036206;28;20258;-79
2022/06/18 03:57:27;;;;;;;10.00;9.70;;;15.90;99.90;;;;;;5038956;28;20236;-78
2022/06/18 03:59:58;;;;;;;10.20;9.90;;;15.90;99.90;;;;;;5039435;28;20301;-79
2022/06/18 04:02:26;;;;;;;9.88;9.57;;;15.90;99.90;;;;;;5052134;28;20258;-79
2022/06/18 04:04:58;;;;;;;10.20;9.90;;;15.90;99.90;;;;;;5066428;28;20387;-81
2022/06/18 04:07:39;;;;;;;10.20;9.90;;;15.90;99.90;;;;;;5073354;28;20246;-80
2022/06/18 04:10:12;;;;;;;10.27;9.98;;;16.00;99.90;;;;;;5054738;28;20230;-81
2022/06/18 04:12:39;;;;;;;10.10;9.80;;;16.10;99.90;;;;;;5039828;28;20227;-81
2022/06/18 04:15:08;;;;;;;9.80;9.50;;;16.10;99.90;;;;;;5058587;28;20231;-81
2022/06/18 04:17:39;;;;;;;10.10;9.80;;;16.10;99.90;;;;;;5059766;28;20223;-80
2022/06/18 04:20:27;;;;;;;10.05;9.75;;;16.10;99.90;;;;;;5059249;28;20349;-81
2022/06/18 04:22:58;;;;;;;10.10;9.80;;;16.10;99.90;;;;;;5059090;28;20226;-80
2022/06/18 04:25:36;;;;;;;10.20;9.90;;;16.20;99.90;;;;;;5059054;28;20226;-81
2022/06/18 04:28:06;;;;;;;10.10;9.80;;;16.20;99.90;;;;;;5059040;28;20293;-80
2022/06/18 04:30:36;;;;;;;10.18;9.88;;;16.20;99.90;;;;;;5058771;28;20346;-81
2022/06/18 04:33:04;;;;;;;10.27;9.98;;;16.20;99.90;;;;;;5058794;28;20234;-80
2022/06/18 04:35:36;;;;;;;10.20;9.90;;;16.30;99.90;;;;;;5058699;28;20285;-81
2022/06/18 04:38:05;;;;;;;10.18;9.88;;;16.30;99.90;;;;;;5057196;28;20235;-81
2022/06/18 04:40:41;;;;;;;10.00;9.70;;;16.30;99.90;;;;;;5058475;28;20266;-83
2022/06/18 04:43:11;;;;;;;10.05;9.75;;;16.40;99.90;;;;;;5040776;28;20253;-83
2022/06/18 04:45:39;;;;;;;10.20;9.90;;;16.50;99.90;;;;;;5038647;28;20222;-81
2022/06/18 04:48:08;;;;;;;9.88;9.57;;;16.50;99.90;;;;;;5038627;28;20266;-81
2022/06/18 04:50:46;;;;;;;10.07;9.77;;;16.60;99.90;;;;;;5038574;28;20235;-81
2022/06/18 04:53:14;;;;;;;9.95;9.65;;;16.70;99.90;;;;;;5039257;28;20295;-81
2022/06/18 04:55:42;;;;;;;10.05;9.75;;;16.80;99.90;;;;;;5039500;28;20227;-81
2022/06/18 04:58:10;;;;;;;10.10;9.80;;;16.90;99.90;;;;;;5043693;28;20296;-83
2022/06/18 05:00:38;;;;;;;10.35;10.05;;;17.00;99.90;;;;;;5059501;28;20230;-80
2022/06/18 05:03:06;;;;;;;10.20;9.90;;;17.10;99.90;;;;;;5061473;28;20222;-80
2022/06/18 05:05:33;;;;;;;10.13;9.82;;;17.20;99.90;;;;;;5075265;28;20255;-81
2022/06/18 05:08:02;;;;;;;10.30;10.00;;;17.20;99.90;;;;;;5069661;28;20239;-79
2022/06/18 05:10:30;;;;;;;10.60;10.30;;;17.30;99.90;;;;;;5067777;28;20422;-78
2022/06/18 05:12:57;;;;;;;10.40;10.10;;;17.40;99.90;;;;;;5062930;28;20322;-79
2022/06/18 05:15:25;;;;;;;10.70;10.40;;;17.50;99.90;;;;;;5061155;28;20222;-79
2022/06/18 05:17:52;;;;;;;10.48;10.18;;;17.70;99.90;;;;;;5063348;28;20302;-79
2022/06/18 05:20:23;;;;;;;10.40;10.10;;;17.80;99.90;;;;;;5059705;28;20314;-78
2022/06/18 05:22:51;;;;;;;10.43;10.13;;;17.80;99.90;;;;;;5061292;28;20245;-79
2022/06/18 05:25:21;;;;;;;10.75;10.45;;;17.90;99.90;;;;;;5061433;28;20423;-77
2022/06/18 05:27:49;;;;;;;10.30;10.00;;;18.00;99.90;;;;;;5060663;28;20297;-78
2022/06/18 05:30:21;;;;;;;10.50;10.20;;;18.00;99.90;;;;;;5115216;22;20256;-82
2022/06/18 05:32:49;;;;;;;10.30;10.00;;;18.10;99.90;;;;;;5054449;28;20235;-81
2022/06/18 05:35:17;;;;;;;10.57;10.27;;;18.20;99.90;;;;;;5053034;28;20216;-82
2022/06/18 05:37:46;;;;;;;10.43;10.13;;;18.40;99.90;;;;;;5052294;28;20298;-82
2022/06/18 05:40:16;;;;;;;10.43;10.13;;;18.50;99.90;;;;;;5051185;28;20259;-81
2022/06/18 05:42:48;;;;;;;10.15;9.85;;;18.60;99.90;;;;;;5053180;28;20235;-82
2022/06/18 05:45:16;;;;;;;10.20;9.90;;;18.70;99.90;;;;;;5053026;28;20224;-82
2022/06/18 05:47:45;;;;;;;10.40;10.10;;;18.80;99.90;;;;;;5052323;28;20307;-82
2022/06/18 05:50:16;;;;;;;10.40;10.10;;;19.00;99.90;;;;;;5050941;28;20239;-82
2022/06/18 05:52:44;;;;;;;10.75;10.45;;;19.10;99.90;;;;;;5050443;28;20258;-81
2022/06/18 05:55:13;;;;;;;10.52;10.23;;;19.20;99.90;;;;;;5049571;28;20311;-81
2022/06/18 06:00:38;;;;;;;10.48;10.18;;;19.40;99.90;;;;;;5049418;28;20231;-84
2022/06/18 06:03:07;;;;;;;10.50;10.20;;;19.50;99.90;;;;;;5049388;28;20326;-82
2022/06/18 06:05:37;;;;;;;10.40;10.10;;;19.60;99.90;;;;;;5048738;28;20295;-81
2022/06/18 06:08:07;;;;;;;10.43;10.13;;;19.80;99.90;;;;;;5050059;28;20310;-81
2022/06/18 06:13:26;;;;;;;10.55;10.25;;;20.10;99.90;;;;;;5058211;28;20249;-81
2022/06/18 06:15:54;;;;;;;10.50;10.20;;;20.20;99.90;;;;;;5055044;28;20310;-81
2022/06/18 06:18:24;;;;;;;10.57;10.27;;;20.30;99.90;;;;;;5054490;28;20231;-81
2022/06/18 06:20:54;;;;;;;10.60;10.30;;;20.40;99.90;;;;;;5053173;28;20314;-82
2022/06/18 06:23:22;;;;;;;10.55;10.25;;;20.60;99.90;;;;;;5050247;28;20230;-82
2022/06/18 06:25:52;;;;;;;10.77;10.48;;;20.70;99.90;;;;;;5049712;28;20318;-82
2022/06/18 06:31:08;;;;;;;10.65;10.35;;;21.00;99.90;;;;;;5048363;28;20227;-82
2022/06/18 06:33:38;;;;;;;10.70;10.40;;;21.20;99.90;;;;;;5046742;28;20235;-82
2022/06/18 06:36:08;;;;;;;10.50;10.20;;;21.40;99.90;;;;;;5047411;28;20230;-82
2022/06/18 06:38:37;;;;;;;10.52;10.23;;;21.50;99.90;;;;;;5048208;28;20235;-82
2022/06/18 06:41:07;;;;;;;10.68;10.38;;;21.70;99.90;;;;;;5048231;28;20239;-82
2022/06/18 06:43:38;;;;;;;10.60;10.30;;;21.80;99.90;;;;;;5048112;28;20239;-82
2022/06/18 06:46:06;;;;;;;10.60;10.30;;;21.90;99.90;;;;;;5047322;28;20263;-82
2022/06/18 06:48:34;;;;;;;10.45;10.15;;;22.10;99.90;;;;;;5047673;28;20241;-82
2022/06/18 06:51:04;;;;;;;10.82;10.52;;;22.20;99.90;;;;;;5047904;28;20250;-82
2022/06/18 06:53:34;;;;;;;11.07;10.77;;;22.40;99.90;;;;;;5047971;28;20254;-82
2022/06/18 07:01:45;;;;;;;10.80;10.50;;;22.80;99.90;;;;;;5047394;28;20375;-82
2022/06/18 07:04:16;;;;;;;10.70;10.40;;;23.00;99.90;;;;;;5047031;28;20310;-82
2022/06/18 07:06:56;;;;;;;10.70;10.40;;;23.10;99.90;;;;;;5047545;28;20713;-83
2022/06/18 07:09:23;;;;;;;10.70;10.40;;;23.20;99.90;;;;;;5047189;28;20259;-82
2022/06/18 07:11:52;;;;;;;10.73;10.43;;;23.40;99.90;;;;;;5047545;28;20307;-82
2022/06/18 07:14:30;;;;;;;10.88;10.57;;;23.60;99.90;;;;;;5050261;28;20287;-82
2022/06/18 07:17:00;;;;;;;10.80;10.50;;;23.70;99.90;;;;;;5050960;28;20246;-83
2022/06/18 07:19:30;;;;;;;10.90;10.60;;;23.90;99.90;;;;;;5049241;28;20306;-83
2022/06/18 07:21:58;;;;;;;10.70;10.40;;;24.00;99.90;;;;;;5048590;28;20286;-83
2022/06/18 07:24:29;;;;;;;11.02;10.73;;;24.20;99.90;;;;;;5047487;28;20239;-83
2022/06/18 07:26:58;;;;;;;10.90;10.60;;;24.30;99.90;;;;;;5048014;28;20231;-83
2022/06/18 07:29:36;;;;;;;11.00;10.70;;;24.50;99.90;;;;;;5047592;28;20325;-83
2022/06/18 07:32:08;;;;;;;11.00;10.70;;;24.70;99.90;;;;;;5048021;28;20242;-84
2022/06/18 07:34:36;;;;;;;10.90;10.60;;;24.90;99.90;;;;;;5046804;28;20273;-83
2022/06/18 07:37:04;;;;;;;10.90;10.60;;;25.10;99.90;;;;;;5049375;28;20231;-82
2022/06/18 07:39:33;;;;;;;10.82;10.52;;;25.30;99.90;;;;;;5046943;28;20326;-82
2022/06/18 07:42:03;;;;;;;10.95;10.65;;;25.40;99.90;;;;;;5047319;28;20354;-83
2022/06/18 07:47:20;;;;;;;10.93;10.63;;;25.70;99.90;;;;;;5047943;28;20246;-82
2022/06/18 07:49:50;;;;;;;10.93;10.63;;;25.90;99.90;;;;;;5046728;28;20239;-83
2022/06/18 07:52:19;;;;;;;11.00;10.70;;;26.10;99.90;;;;;;5052642;28;20223;-83
2022/06/18 07:54:49;;;;;;;11.13;10.82;;;26.30;99.90;;;;;;5050273;28;20219;-82
2022/06/18 07:57:18;;;;;;;11.02;10.73;;;26.50;99.90;;;;;;5048865;28;20262;-82
2022/06/18 07:59:50;;;;;;;11.02;10.73;;;26.70;99.90;;;;;;5048896;28;20243;-82
2022/06/18 08:02:18;;;;;;;11.00;10.70;;;26.80;99.90;;;;;;5048806;28;20283;-83
2022/06/18 08:04:45;;;;;;;10.90;10.60;;;26.90;99.90;;;;;;5048024;28;20227;-82
2022/06/18 08:07:15;;;;;;;11.07;10.77;;;27.00;99.90;;;;;;5048884;28;20287;-82
2022/06/18 08:09:44;;;;;;;11.20;10.90;;;27.20;99.90;;;;;;5048150;28;20239;-82
2022/06/18 08:12:15;;;;;;;10.80;10.50;;;27.40;99.90;;;;;;5046960;28;20326;-82
2022/06/18 08:14:43;;;;;;;10.85;10.55;;;27.40;99.90;;;;;;5049389;28;20236;-82
2022/06/18 08:20:00;;;;;;;10.70;10.40;;;27.90;99.90;;;;;;5044190;28;20228;-83
2022/06/18 08:22:32;;;;;;;10.70;10.40;;;28.20;99.90;;;;;;5047058;28;20232;-82
2022/06/18 08:25:01;;;;;;;10.70;10.40;;;28.40;99.90;;;;;;5046807;28;20321;-82
2022/06/18 08:27:30;;;;;;;10.85;10.55;;;28.70;99.90;;;;;;5047959;28;20236;-82
2022/06/18 08:29:59;;;;;;;10.73;10.43;;;28.90;99.90;;;;;;5056489;28;20295;-82
2022/06/18 08:32:41;;;;;;;10.55;10.25;;;29.10;99.90;;;;;;5051813;28;20259;-82
2022/06/18 08:35:09;;;;;;;10.73;10.43;;;29.10;99.90;;;;;;5049855;28;20300;-83
2022/06/18 08:37:38;;;;;;;10.23;9.93;;;29.50;99.90;;;;;;5049565;28;20259;-83
2022/06/18 08:40:34;;;;;;;10.20;9.90;;;29.70;99.90;;;;;;5048894;28;20262;-83
2022/06/18 08:43:21;;;;;;;10.40;10.10;;;29.80;99.90;;;;;;5049256;28;20282;-83
2022/06/18 08:45:58;;;;;;;10.60;10.30;;;29.90;99.90;;;;;;5049320;28;20234;-82
2022/06/18 08:49:02;;;;;;;10.60;10.30;;;30.10;99.90;;;;;;5048666;28;20278;-82
2022/06/18 08:51:41;;;;;;;10.80;10.50;;;30.40;99.90;;;;;;5042800;28;20241;-82
2022/06/18 08:54:27;;;;;;;10.70;10.40;;;30.70;99.90;;;;;;5048448;28;20260;-82
2022/06/18 08:57:05;;;;;;;10.73;10.43;;;30.90;99.90;;;;;;5048382;28;20262;-82
2022/06/18 08:59:47;;;;;;;11.00;10.70;;;31.00;99.90;;;;;;5050346;28;20290;-82
2022/06/18 09:02:24;;;;;;;11.20;10.90;;;30.90;99.90;;;;;;5050860;28;20305;-82
2022/06/18 09:05:12;;;;;;;10.80;10.50;;;30.90;99.90;;;;;;5049680;28;20293;-82
2022/06/18 09:08:05;;;;;;;10.85;10.55;;;31.00;99.90;;;;;;5049267;28;20223;-82
2022/06/18 09:10:52;;;;;;;10.80;10.50;;;31.10;99.90;;;;;;5048986;28;20227;-83
2022/06/18 09:13:23;;;;;;;10.80;10.50;;;31.40;99.90;;;;;;5050811;28;20219;-82
2022/06/18 09:16:00;;;;;;;10.68;10.38;;;31.60;99.90;;;;;;5051280;28;20318;-82
2022/06/18 09:18:39;;;;;;;10.70;10.40;;;31.60;99.90;;;;;;5049188;28;20243;-82
2022/06/18 09:21:17;;;;;;;10.70;10.40;;;31.70;99.90;;;;;;5048569;28;20228;-82
2022/06/18 09:23:55;;;;;;;10.55;10.25;;;31.90;99.90;;;;;;5048460;28;20238;-83
2022/06/18 09:26:32;;;;;;;10.50;10.20;;;32.20;99.90;;;;;;5047233;28;20362;-83
2022/06/18 09:29:11;;;;;;;10.50;10.20;;;32.20;99.90;;;;;;5058252;28;20283;-82
2022/06/18 09:31:50;;;;;;;10.75;10.45;;;32.00;99.90;;;;;;5058813;28;20219;-82
2022/06/18 09:34:27;;;;;;;10.80;10.50;;;32.20;99.90;;;;;;5054569;28;20235;-82
2022/06/18 09:37:06;;;;;;;10.73;10.43;;;32.30;99.90;;;;;;5051522;28;20235;-82
2022/06/18 09:39:39;;;;;;;10.77;10.48;;;32.60;99.90;;;;;;5050749;28;20415;-82
2022/06/18 09:42:14;;;;;;;10.90;10.60;;;32.90;99.90;;;;;;5050090;28;20219;-82
2022/06/18 09:44:52;;;;;;;10.70;10.40;;;33.00;99.90;;;;;;5048709;28;20294;-82
2022/06/18 09:47:30;;;;;;;10.65;10.35;;;33.10;99.90;;;;;;5049395;28;20337;-82
2022/06/18 09:50:00;;;;;;;10.65;10.35;;;32.90;99.90;;;;;;5047715;28;20271;-82
2022/06/18 09:52:39;;;;;;;10.57;10.27;;;32.50;99.90;;;;;;5047396;28;20240;-83
2022/06/18 09:55:16;;;;;;;10.35;10.05;;;32.70;99.90;;;;;;5047195;28;20242;-82
2022/06/18 09:57:54;;;;;;;10.60;10.30;;;33.30;99.90;;;;;;5047445;28;20294;-82
2022/06/18 10:00:27;;;;;;;10.60;10.30;;;33.80;99.90;;;;;;5046509;28;20237;-82
2022/06/18 10:03:02;;;;;;;10.63;10.32;;;33.90;99.90;;;;;;5047206;28;20232;-83
2022/06/18 10:08:35;;;;;;;10.70;10.40;;;34.00;99.90;;;;;;5047609;28;20255;-82
2022/06/18 10:11:08;;;;;;;10.70;10.40;;;33.80;99.70;;;;;;5050226;28;20295;-83
2022/06/18 10:13:43;;;;;;;10.77;10.48;;;34.00;99.60;;;;;;5049688;28;20278;-83
2022/06/18 10:16:22;;;;;;;10.95;10.65;;;34.00;98.30;;;;;;5049729;28;20265;-83
2022/06/18 10:21:57;;;;;;;10.90;10.60;;;33.90;97.80;;;;;;5048645;28;20234;-82
2022/06/18 10:24:37;;;;;;;11.00;10.70;;;33.70;98.50;;;;;;5048885;28;20250;-83
2022/06/18 10:27:16;;;;;;;10.90;10.60;;;34.00;98.60;;;;;;5049293;28;20258;-83
2022/06/18 10:29:55;;;;;;;11.00;10.70;;;34.20;96.70;;;;;;5048810;28;20235;-83
2022/06/18 10:32:40;;;;;;;10.85;10.55;;;34.40;96.20;;;;;;5049667;28;20725;-83
2022/06/18 10:38:39;;;;;;;10.80;10.50;;;34.50;96.40;;;;;;5049084;28;20223;-83
2022/06/18 10:41:20;;;;;;;10.90;10.60;;;34.30;98.00;;;;;;5048379;28;20287;-83
2022/06/18 10:44:15;;;;;;;10.68;10.38;;;34.50;97.40;;;;;;5048515;28;20228;-83
2022/06/18 10:46:42;;;;;;;10.80;10.50;;;34.60;96.60;;;;;;5051852;28;20237;-83
2022/06/18 10:49:13;;;;;;;10.20;9.90;;;34.40;96.00;;;;;;5057243;28;20235;-83
2022/06/18 10:51:50;;;;;;;10.60;10.30;;;34.60;96.80;;;;;;5052159;28;20236;-83
2022/06/18 10:54:30;;;;;;;10.90;10.60;;;35.10;96.60;;;;;;5050985;28;20231;-83
2022/06/18 10:57:24;;;;;;;10.85;10.55;;;35.40;98.20;;;;;;5049896;28;20227;-83
2022/06/18 10:59:54;;;;;;;11.00;10.70;;;35.70;98.60;;;;;;5048560;28;20243;-84
2022/06/18 11:02:35;;;;;;;10.90;10.60;;;36.10;96.80;;;;;;5048296;28;20331;-83
2022/06/18 11:05:11;;;;;;;11.10;10.80;;;36.20;96.10;;;;;;5047634;28;20317;-83
2022/06/18 11:07:40;;;;;;;11.05;10.75;;;36.00;96.60;;;;;;5049645;28;20227;-83
2022/06/18 11:10:27;;;;;;;11.00;10.70;;;36.30;97.30;;;;;;5048917;28;20274;-83
2022/06/18 11:13:05;;;;;;;11.10;10.80;;;36.20;95.10;;;;;;5049306;28;20247;-83
2022/06/18 11:15:36;;;;;;;11.20;10.90;;;36.10;93.70;;;;;;5049155;28;20283;-83
2022/06/18 11:18:04;;;;;;;11.10;10.80;;;36.20;94.90;;;;;;5049205;28;20230;-83
2022/06/18 11:20:33;;;;;;;10.88;10.57;;;36.50;94.70;;;;;;5047437;28;20262;-83
2022/06/18 11:23:05;;;;;;;10.75;10.45;;;36.70;93.60;;;;;;5049544;28;20290;-83
2022/06/18 11:25:50;;;;;;;10.88;10.57;;;36.90;95.20;;;;;;5049799;28;20223;-83
2022/06/18 11:28:29;;;;;;;11.00;10.70;;;36.90;93.40;;;;;;5047994;28;20215;-83
2022/06/18 11:31:01;;;;;;;10.70;10.40;;;37.10;93.40;;;;;;5063359;22;20266;-76
2022/06/18 11:33:34;;;;;;;10.90;10.60;;;36.90;93.80;;;;;;5036534;28;20227;-76
2022/06/18 11:36:09;;;;;;;10.88;10.57;;;37.00;91.70;;;;;;5036326;28;20241;-76
2022/06/18 11:38:38;;;;;;;10.77;10.48;;;37.40;93.00;;;;;;5036725;28;20234;-76
2022/06/18 11:41:16;;;;;;;11.00;10.70;;;37.40;90.60;;;;;;5035618;28;20239;-75
2022/06/18 11:43:55;;;;;;;10.98;10.68;;;37.70;90.20;;;;;;5036049;28;20241;-76
2022/06/18 11:46:30;;;;;;;10.80;10.50;;;37.80;89.50;;;;;;5035306;28;20227;-77
2022/06/18 11:49:07;;;;;;;10.90;10.60;;;37.70;91.80;;;;;;5035693;28;20235;-76
2022/06/18 11:51:43;;;;;;;10.88;10.57;;;37.70;90.70;;;;;;5036011;28;20234;-76
2022/06/18 11:54:23;;;;;;;10.73;10.43;;;37.80;90.70;;;;;;5035712;28;20231;-77
2022/06/18 11:56:58;;;;;;;10.80;10.50;;;37.60;90.20;;;;;;5035836;28;20235;-77
2022/06/18 11:59:35;;;;;;;10.82;10.52;;;37.90;91.50;;;;;;5035671;28;20227;-77
2022/06/18 12:02:10;;;;;;;10.75;10.45;;;37.90;88.70;;;;;;5035742;28;20285;-77
2022/06/18 12:04:44;;;;;;;10.70;10.40;;;37.60;89.70;;;;;;5035739;28;20235;-77
2022/06/18 12:07:22;;;;;;;11.27;10.98;;;37.50;90.10;;;;;;5035656;28;20235;-76
2022/06/18 12:09:49;;;;;;;11.00;10.70;;;37.50;90.30;;;;;;5035504;28;20318;-77
2022/06/18 12:12:49;;;;;;;10.85;10.55;;;37.40;89.20;;;;;;5035307;28;20242;-76
2022/06/18 12:15:28;;;;;;;10.95;10.65;;;37.60;90.60;;;;;;5035005;28;20231;-77
2022/06/18 12:18:01;;;;;;;10.85;10.55;;;37.90;90.50;;;;;;5035288;28;20693;-77
2022/06/18 12:20:56;;;;;;;10.75;10.45;;;38.00;89.20;;;;;;5035161;28;20709;-77
2022/06/18 12:23:36;;;;;;;10.80;10.50;;;37.70;89.10;;;;;;5031004;28;20232;-77
2022/06/18 12:26:12;;;;;;;10.70;10.40;;;37.60;89.10;;;;;;5034989;28;20231;-77
2022/06/18 12:28:54;;;;;;;10.80;10.50;;;37.70;91.30;;;;;;5035177;28;20218;-77
2022/06/18 12:31:34;;;;;;;10.75;10.45;;;37.70;89.70;;;;;;5034521;28;20236;-77
2022/06/18 12:34:11;;;;;;;10.63;10.32;;;37.50;90.20;;;;;;5036274;28;20242;-77
2022/06/18 12:36:48;;;;;;;10.68;10.38;;;37.40;90.10;;;;;;5035179;28;20291;-77
2022/06/18 12:39:25;;;;;;;10.90;10.60;;;37.50;89.50;;;;;;5035586;28;20719;-77
2022/06/18 12:41:58;;;;;;;10.70;10.40;;;37.90;89.40;;;;;;5036425;28;20257;-77
2022/06/18 12:44:38;;;;;;;11.10;10.80;;;38.20;89.70;;;;;;5037095;28;20254;-77
2022/06/18 12:47:19;;;;;;;11.07;10.77;;;38.40;91.90;;;;;;5053141;28;20238;-76
2022/06/18 12:50:04;;;;;;;10.73;10.43;;;38.60;90.10;;;;;;5057577;28;20247;-77
2022/06/18 12:52:42;;;;;;;11.05;10.75;;;39.00;87.20;;;;;;5058111;28;20222;-76
2022/06/18 12:55:29;;;;;;;11.20;10.90;;;39.20;89.00;;;;;;5058464;28;20257;-75
2022/06/18 12:58:14;;;;;;;10.75;10.45;;;39.40;89.70;;;;;;5057322;28;20226;-75
2022/06/18 13:00:48;;;;;;;10.95;10.65;;;39.80;88.60;;;;;;5056713;28;20241;-77
2022/06/18 13:03:47;;;;;;;10.88;10.57;;;40.00;86.50;;;;;;5051147;28;20326;-77
2022/06/18 13:06:27;;;;;;;11.20;10.90;;;40.20;89.00;;;;;;5048987;28;20290;-78
2022/06/18 13:09:04;;;;;;;11.10;10.80;;;40.30;85.40;;;;;;5045664;28;20294;-77
2022/06/18 13:11:51;;;;;;;11.10;10.80;;;40.40;86.20;;;;;;5051135;28;20253;-78
2022/06/18 13:14:47;;;;;;;10.90;10.60;;;40.20;84.80;;;;;;5044566;28;20229;-77
2022/06/18 13:17:20;;;;;;;10.60;10.30;;;40.00;85.20;;;;;;5042799;28;20238;-77
2022/06/18 13:19:56;;;;;;;10.75;10.45;;;40.20;84.80;;;;;;5042607;28;20238;-77
2022/06/18 13:22:24;;;;;;;11.02;10.73;;;40.40;85.70;;;;;;5042634;28;20298;-77
2022/06/18 13:30:36;;;;;;;11.10;10.80;;;40.30;82.30;;;;;;5035790;28;20329;-77
2022/06/18 13:33:11;;;;;;;11.20;10.90;;;40.10;83.70;;;;;;5041731;28;20325;-77
2022/06/18 13:35:47;;;;;;;11.00;10.70;;;40.00;85.00;;;;;;5042018;28;20225;-77
2022/06/18 13:38:23;;;;;;;11.30;11.00;;;39.90;84.70;;;;;;5034707;28;20231;-77
2022/06/18 13:40:56;;;;;;;11.10;10.80;;;39.30;85.10;;;;;;5034157;28;20226;-77
2022/06/18 13:43:34;;;;;;;10.93;10.63;;;39.00;84.90;;;;;;5036671;28;20241;-77
2022/06/18 13:46:06;;;;;;;10.70;10.40;;;38.80;85.10;;;;;;5037056;28;20231;-77
2022/06/18 13:48:51;;;;;;;10.80;10.50;;;38.50;87.60;;;;;;5038132;28;20696;-77
2022/06/18 13:51:32;;;;;;;11.20;10.90;;;38.40;86.10;;;;;;5038642;28;20286;-77
2022/06/18 13:54:12;;;;;;;11.20;10.90;;;38.10;85.80;;;;;;5038004;28;20338;-77
2022/06/18 13:56:43;;;;;;;11.10;10.80;;;37.80;86.60;;;;;;5037863;28;20238;-74
2022/06/18 13:59:20;;;;;;;11.27;10.98;;;37.90;91.10;;;;;;5036813;28;20307;-77
2022/06/18 14:01:50;;;;;;;11.23;10.93;;;38.40;88.80;;;;;;5036848;28;20231;-78
2022/06/18 14:04:26;;;;;;;10.50;10.20;;;38.90;85.80;;;;;;5036748;28;20227;-77
2022/06/18 14:06:59;;;;;;;10.90;10.60;;;39.30;84.90;;;;;;5037334;28;20227;-79
2022/06/18 14:09:30;;;;;;;11.27;10.98;;;39.60;82.10;;;;;;5037261;28;20338;-77
2022/06/18 14:12:03;;;;;;;11.18;10.88;;;39.80;83.00;;;;;;5036484;28;20233;-77
2022/06/18 14:14:35;;;;;;;11.30;11.00;;;40.00;83.80;;;;;;5037149;28;20235;-77
2022/06/18 14:17:09;;;;;;;11.23;10.93;;;39.80;82.80;;;;;;5037508;28;20223;-77
2022/06/18 14:19:39;;;;;;;11.15;10.85;;;40.10;80.70;;;;;;5038788;28;20234;-77
2022/06/18 14:22:23;;;;;;;11.02;10.73;;;40.20;81.30;;;;;;5039724;28;20246;-77
2022/06/18 14:24:55;;;;;;;11.25;10.95;;;40.00;82.40;;;;;;5038189;28;20223;-77
2022/06/18 14:27:27;;;;;;;11.10;10.80;;;39.90;81.60;;;;;;5038099;28;20227;-77